Time;durP1;ratioP1;P1;durP2;ratioP2;P2;SDS_P1;SDS_P2;PMS_P1;PMS_P2;Temp;Humidity;BMP_temperature;BMP_pressure;BME280_temperature;BME280_humidity;BME280_pressure;Samples;Min_cycle;Max_cycle;Signal;HPM_P1;HPM_P2
2022/06/04 00:01:43;;;;;;;10.07;5.45;;;23.50;99.90;;;;;;4887368;29;20083;-88
2022/06/04 00:04:13;;;;;;;7.95;5.15;;;23.50;99.90;;;;;;4887402;29;20036;-90
2022/06/04 00:06:41;;;;;;;9.93;4.93;;;23.40;99.90;;;;;;4902751;29;20035;-89
2022/06/04 00:09:09;;;;;;;9.43;5.40;;;23.40;99.90;;;;;;4887303;29;20165;-88
2022/06/04 00:17:13;;;;;;;10.52;4.88;;;23.10;99.90;;;;;;4902388;29;20036;-89
2022/06/04 00:19:40;;;;;;;10.70;5.15;;;22.80;99.90;;;;;;4886705;29;20043;-89
2022/06/04 00:22:07;;;;;;;10.80;6.03;;;22.70;99.90;;;;;;4902436;29;20033;-88
2022/06/04 00:24:35;;;;;;;11.02;5.78;;;22.70;99.90;;;;;;4886904;29;20028;-89
2022/06/04 00:27:02;;;;;;;13.85;7.30;;;22.60;99.90;;;;;;4902247;29;20035;-88
2022/06/04 00:29:31;;;;;;;12.30;6.25;;;22.50;99.90;;;;;;4886975;29;20508;-90
2022/06/04 00:31:58;;;;;;;8.60;5.82;;;22.50;99.90;;;;;;4889444;29;20040;-87
2022/06/04 00:34:25;;;;;;;9.50;5.60;;;22.60;99.90;;;;;;4886530;29;20054;-89
2022/06/04 00:36:51;;;;;;;9.25;6.03;;;22.70;99.90;;;;;;4902163;29;20032;-89
2022/06/04 00:39:19;;;;;;;9.90;5.45;;;22.80;99.90;;;;;;4912925;29;20067;-91
2022/06/04 00:42:01;;;;;;;6.72;5.22;;;22.90;99.90;;;;;;4922460;29;20056;-89
2022/06/04 00:44:31;;;;;;;10.70;5.47;;;23.00;99.90;;;;;;4924114;29;20070;-89
2022/06/04 00:47:15;;;;;;;10.88;5.30;;;23.10;99.90;;;;;;4924096;29;20043;-87
2022/06/04 00:49:42;;;;;;;13.30;5.20;;;23.20;99.90;;;;;;4923860;29;20038;-88
2022/06/04 00:52:13;;;;;;;10.27;5.68;;;23.20;99.90;;;;;;4923977;29;20107;-89
2022/06/04 00:54:42;;;;;;;8.77;5.45;;;23.30;99.90;;;;;;4923885;29;20031;-89
2022/06/04 00:57:43;;;;;;;10.10;5.53;;;23.30;99.90;;;;;;4923820;29;20417;-88
2022/06/04 01:00:34;;;;;;;12.73;6.15;;;23.30;99.90;;;;;;4923994;29;20577;-89
2022/06/04 01:03:08;;;;;;;8.32;5.22;;;23.40;99.90;;;;;;4923614;29;20059;-88
2022/06/04 01:05:59;;;;;;;11.77;5.25;;;23.40;99.90;;;;;;4923828;29;20050;-88
2022/06/04 01:08:37;;;;;;;10.07;5.07;;;23.40;99.90;;;;;;4923822;29;20030;-88
2022/06/04 01:11:33;;;;;;;9.60;5.13;;;23.30;99.90;;;;;;4923528;29;20087;-89
2022/06/04 01:14:23;;;;;;;10.02;5.00;;;23.20;99.90;;;;;;4923600;29;20028;-89
2022/06/04 01:17:22;;;;;;;13.52;5.45;;;23.30;99.90;;;;;;4923654;29;20058;-88
2022/06/04 01:20:26;;;;;;;9.07;5.80;;;23.30;99.90;;;;;;4906031;29;20497;-88
2022/06/04 01:23:05;;;;;;;8.13;4.90;;;23.30;99.90;;;;;;4923406;29;20032;-89
2022/06/04 01:25:59;;;;;;;10.30;5.60;;;23.10;99.90;;;;;;4923695;29;20027;-88
2022/06/04 01:28:28;;;;;;;11.00;5.43;;;23.00;99.90;;;;;;4923449;29;20035;-90
2022/06/04 01:31:00;;;;;;;10.32;5.45;;;23.00;99.90;;;;;;4923288;29;20031;-88
2022/06/04 01:33:49;;;;;;;10.35;5.63;;;23.00;99.90;;;;;;4923467;29;20031;-90
2022/06/04 01:36:28;;;;;;;8.90;5.75;;;22.90;99.90;;;;;;4923552;29;20027;-88
2022/06/04 01:39:09;;;;;;;9.77;6.20;;;22.70;99.90;;;;;;4908287;29;20083;-89
2022/06/04 01:41:43;;;;;;;12.65;6.40;;;22.60;99.90;;;;;;4885600;29;20032;-88
2022/06/04 01:44:36;;;;;;;10.77;6.22;;;22.60;99.90;;;;;;4901187;29;20032;-90
2022/06/04 01:47:05;;;;;;;10.07;5.95;;;22.60;99.90;;;;;;4868372;29;20205;-88
2022/06/04 01:49:46;;;;;;;12.82;6.82;;;22.60;99.90;;;;;;4885666;29;20043;-89
2022/06/04 01:52:32;;;;;;;9.35;6.15;;;22.60;99.90;;;;;;4901240;29;20063;-89
2022/06/04 01:55:28;;;;;;;10.10;6.28;;;22.60;99.90;;;;;;4901205;29;20060;-90
2022/06/04 01:58:03;;;;;;;8.40;5.80;;;22.70;99.90;;;;;;4901055;29;20538;-89
2022/06/04 02:00:48;;;;;;;11.30;5.78;;;22.80;99.90;;;;;;4901037;29;20060;-90
2022/06/04 02:03:20;;;;;;;9.52;6.50;;;22.60;99.90;;;;;;4901013;29;20064;-88
2022/06/04 02:05:53;;;;;;;9.90;6.72;;;22.60;99.90;;;;;;4900987;29;20059;-88
2022/06/04 02:08:34;;;;;;;15.20;6.20;;;22.50;99.90;;;;;;4885415;29;20028;-89
2022/06/04 02:11:15;;;;;;;7.72;5.90;;;22.50;99.90;;;;;;4885385;29;20513;-88
2022/06/04 02:13:46;;;;;;;12.43;6.35;;;22.60;99.90;;;;;;4901011;29;20028;-88
2022/06/04 02:16:58;;;;;;;11.13;5.68;;;22.70;99.90;;;;;;4903279;29;20040;-89
2022/06/04 02:19:26;;;;;;;10.98;5.43;;;22.70;99.90;;;;;;4811638;29;20053;-89
2022/06/04 02:21:54;;;;;;;11.85;6.40;;;22.70;99.90;;;;;;4796497;29;20054;-87
2022/06/04 02:24:21;;;;;;;12.05;6.90;;;22.70;99.90;;;;;;4796662;29;20046;-89
2022/06/04 02:26:48;;;;;;;11.00;6.43;;;22.70;99.90;;;;;;4796548;29;20026;-87
2022/06/04 02:29:16;;;;;;;13.25;6.18;;;22.70;99.90;;;;;;4811347;29;20046;-87
2022/06/04 02:32:00;;;;;;;11.68;6.00;;;22.70;99.90;;;;;;4797632;29;20045;-88
2022/06/04 02:34:36;;;;;;;;;;;22.70;99.90;;;;;;4801418;29;20046;-86
2022/06/04 02:37:14;;;;;;;12.00;7.07;;;22.60;99.90;;;;;;4814884;29;20488;-87
2022/06/04 02:40:09;;;;;;;12.77;6.72;;;22.60;99.90;;;;;;4833098;29;20054;-87
2022/06/04 02:43:02;;;;;;;14.07;6.68;;;22.60;99.90;;;;;;4822252;29;20488;-88
2022/06/04 02:45:50;;;;;;;11.18;6.55;;;22.70;99.90;;;;;;4817430;29;20124;-91
2022/06/04 02:48:44;;;;;;;10.65;6.65;;;22.70;99.90;;;;;;4819239;29;20085;-89
2022/06/04 02:51:18;;;;;;;8.95;6.53;;;22.70;99.90;;;;;;4882141;29;20071;-89
2022/06/04 02:53:45;;;;;;;9.17;6.37;;;22.70;99.90;;;;;;4894554;29;20063;-91
2022/06/04 02:56:18;;;;;;;13.95;6.80;;;22.70;99.90;;;;;;4894508;29;20028;-86
2022/06/04 02:58:51;;;;;;;11.35;6.38;;;22.70;99.90;;;;;;4894746;29;20036;-88
2022/06/04 03:01:23;;;;;;;8.18;6.05;;;22.70;99.90;;;;;;4893786;29;20123;-89
2022/06/04 03:03:50;;;;;;;9.52;5.80;;;22.80;99.90;;;;;;4894188;29;20032;-89
2022/06/04 03:06:26;;;;;;;11.43;6.47;;;22.80;99.90;;;;;;4894735;29;20031;-90
2022/06/04 03:08:54;;;;;;;8.73;5.95;;;22.70;99.90;;;;;;4895890;29;20032;-88
2022/06/04 03:11:21;;;;;;;10.40;6.57;;;22.70;99.90;;;;;;4909719;29;20076;-90
2022/06/04 03:13:48;;;;;;;10.98;6.38;;;22.70;99.90;;;;;;4891147;29;20123;-88
2022/06/04 03:16:19;;;;;;;11.55;6.03;;;22.80;99.90;;;;;;4888296;29;20035;-88
2022/06/04 03:18:46;;;;;;;10.10;6.68;;;22.80;99.90;;;;;;4887904;29;20032;-89
2022/06/04 03:21:13;;;;;;;10.98;6.20;;;22.80;99.90;;;;;;4903584;29;20123;-89
2022/06/04 03:23:40;;;;;;;8.63;5.68;;;22.80;99.90;;;;;;4888413;29;20106;-89
2022/06/04 03:26:06;;;;;;;8.60;6.32;;;22.80;99.90;;;;;;4887968;29;20087;-88
2022/06/04 03:28:33;;;;;;;12.48;5.80;;;22.70;99.90;;;;;;4887685;29;20493;-89
2022/06/04 03:31:00;;;;;;;10.77;5.80;;;22.70;99.90;;;;;;4887719;29;20056;-89
2022/06/04 03:33:30;;;;;;;8.38;6.20;;;22.70;99.90;;;;;;4887717;29;20025;-90
2022/06/04 03:35:57;;;;;;;13.95;6.93;;;22.70;99.90;;;;;;4887815;29;20471;-90
2022/06/04 03:38:27;;;;;;;10.65;6.65;;;22.80;99.90;;;;;;4887485;29;20040;-91
2022/06/04 03:40:54;;;;;;;14.18;6.90;;;22.80;99.90;;;;;;4903283;29;20072;-89
2022/06/04 03:43:20;;;;;;;10.23;5.68;;;22.90;99.90;;;;;;4887834;29;20024;-89
2022/06/04 03:45:50;;;;;;;11.60;6.53;;;22.90;99.90;;;;;;4903122;29;20123;-90
2022/06/04 03:48:18;;;;;;;10.02;6.55;;;22.70;99.90;;;;;;4903130;29;20032;-89
2022/06/04 03:50:45;;;;;;;13.70;6.93;;;22.60;99.90;;;;;;4882904;29;20057;-89
2022/06/04 03:53:18;;;;;;;13.30;6.30;;;22.60;99.90;;;;;;4887590;29;20032;-88
2022/06/04 03:55:45;;;;;;;11.15;6.60;;;22.50;99.90;;;;;;4903142;29;20068;-89
2022/06/04 03:58:11;;;;;;;13.48;7.07;;;22.60;99.90;;;;;;4887890;29;20074;-88
2022/06/04 04:00:41;;;;;;;10.32;6.15;;;22.60;99.90;;;;;;4902847;29;20028;-89
2022/06/04 04:03:13;;;;;;;14.05;6.07;;;22.60;99.90;;;;;;4887255;29;20028;-89
2022/06/04 04:05:46;;;;;;;10.63;6.35;;;22.70;99.90;;;;;;4887053;29;20036;-88
2022/06/04 04:08:15;;;;;;;12.13;6.88;;;22.70;99.90;;;;;;4902735;29;20066;-91
2022/06/04 04:10:51;;;;;;;11.10;6.95;;;22.80;99.90;;;;;;4887049;29;20168;-89
2022/06/04 04:13:19;;;;;;;19.42;8.93;;;23.00;99.90;;;;;;4902597;29;20087;-89
2022/06/04 04:15:47;;;;;;;10.38;6.70;;;23.10;99.90;;;;;;4886950;29;20092;-89
2022/06/04 04:18:14;;;;;;;12.25;7.05;;;23.20;99.90;;;;;;4902527;29;20073;-89
2022/06/04 04:20:45;;;;;;;10.88;5.72;;;23.30;99.90;;;;;;4887023;29;20028;-89
2022/06/04 04:23:12;;;;;;;13.20;6.53;;;23.50;99.90;;;;;;4902231;29;20516;-90
2022/06/04 04:25:39;;;;;;;12.18;6.95;;;23.60;99.90;;;;;;4886711;29;20043;-88
2022/06/04 04:28:07;;;;;;;10.50;6.30;;;23.60;99.90;;;;;;4886877;29;20490;-89
2022/06/04 04:30:35;;;;;;;15.02;7.25;;;23.80;99.90;;;;;;4886753;29;20028;-91
2022/06/04 04:33:05;;;;;;;12.43;6.20;;;24.00;99.90;;;;;;4902101;29;20032;-90
2022/06/04 04:35:34;;;;;;;10.45;6.88;;;24.20;99.90;;;;;;4886588;29;20508;-91
2022/06/04 04:38:01;;;;;;;11.18;7.47;;;24.70;99.90;;;;;;4910849;29;20066;-88
2022/06/04 04:40:30;;;;;;;12.52;7.28;;;25.20;99.90;;;;;;4924202;29;20043;-88
2022/06/04 04:42:58;;;;;;;14.93;6.70;;;25.80;99.90;;;;;;4924026;29;20086;-90
2022/06/04 04:45:26;;;;;;;13.07;7.78;;;26.60;99.90;;;;;;4924024;29;20034;-91
2022/06/04 04:47:54;;;;;;;15.55;8.52;;;27.00;99.90;;;;;;4923950;29;20105;-89
2022/06/04 04:50:34;;;;;;;16.80;9.98;;;27.40;99.90;;;;;;4924001;29;20488;-88
2022/06/04 04:53:06;;;;;;;14.77;8.75;;;27.80;99.90;;;;;;4923928;29;20047;-89
2022/06/04 04:55:33;;;;;;;14.40;9.35;;;28.30;99.90;;;;;;4924434;29;20203;-90
2022/06/04 04:58:01;;;;;;;17.83;10.43;;;28.70;99.90;;;;;;4923837;29;20020;-90
2022/06/04 05:00:28;;;;;;;18.98;10.43;;;29.20;99.90;;;;;;4923641;29;20035;-90
2022/06/04 05:03:00;;;;;;;19.25;9.38;;;29.10;99.90;;;;;;4923687;29;20030;-89
2022/06/04 05:05:27;;;;;;;11.93;8.25;;;29.20;99.90;;;;;;4923884;29;20031;-90
2022/06/04 05:07:54;;;;;;;12.63;7.60;;;29.40;99.90;;;;;;4923632;29;20481;-89
2022/06/04 05:10:20;;;;;;;15.18;7.50;;;29.40;99.90;;;;;;4923867;29;20031;-90
2022/06/04 05:12:54;;;;;;;14.85;7.05;;;29.50;99.90;;;;;;4923618;29;20023;-88
2022/06/04 05:15:22;;;;;;;12.13;7.32;;;29.30;99.90;;;;;;4923739;29;20032;-89
2022/06/04 05:17:49;;;;;;;14.88;7.40;;;29.40;99.90;;;;;;4923440;29;20039;-90
2022/06/04 05:20:16;;;;;;;14.48;7.65;;;29.40;99.90;;;;;;4923602;29;20045;-89
2022/06/04 05:22:43;;;;;;;20.23;6.88;;;29.20;99.90;;;;;;4923562;29;20023;-89
2022/06/04 05:25:11;;;;;;;12.73;7.25;;;29.10;99.90;;;;;;4923907;29;20472;-88
2022/06/04 05:27:40;;;;;;;15.38;6.30;;;29.40;99.90;;;;;;4940938;29;20060;-91
2022/06/04 05:30:11;;;;;;;14.40;6.68;;;29.80;99.90;;;;;;4926308;29;20401;-94
2022/06/04 05:32:38;;;;;;;14.60;6.35;;;30.30;99.90;;;;;;4922634;29;20019;-92
2022/06/04 05:35:04;;;;;;;14.35;6.82;;;30.70;99.90;;;;;;4911383;29;20122;-93
2022/06/04 05:37:31;;;;;;;10.80;7.18;;;31.20;99.90;;;;;;4931500;29;20111;-92
2022/06/04 05:39:57;;;;;;;11.52;6.80;;;31.80;99.90;;;;;;4911373;29;20580;-92
2022/06/04 05:42:24;;;;;;;13.27;6.82;;;32.00;99.90;;;;;;4912997;29;20023;-93
2022/06/04 05:44:52;;;;;;;11.95;7.40;;;32.60;99.90;;;;;;4927446;29;20067;-93
2022/06/04 05:47:19;;;;;;;13.40;8.05;;;32.90;99.90;;;;;;4900882;29;20024;-90
2022/06/04 05:49:47;;;;;;;14.07;8.25;;;33.00;99.90;;;;;;4913114;29;20489;-90
2022/06/04 05:52:13;;;;;;;14.98;8.68;;;33.20;99.90;;;;;;4915691;29;20028;-92
2022/06/04 05:54:40;;;;;;;18.20;8.88;;;33.40;99.90;;;;;;4912139;29;20031;-90
2022/06/04 05:57:06;;;;;;;13.43;7.75;;;33.70;99.90;;;;;;4917758;29;20376;-91
2022/06/04 05:59:33;;;;;;;14.18;7.53;;;33.80;99.90;;;;;;4917873;29;20046;-90
2022/06/04 06:02:01;;;;;;;13.07;7.45;;;34.20;99.90;;;;;;4915836;29;20028;-92
2022/06/04 06:04:28;;;;;;;17.67;7.63;;;34.60;99.90;;;;;;4931001;29;20063;-92
2022/06/04 06:06:58;;;;;;;13.02;7.45;;;35.00;99.90;;;;;;4916726;29;20115;-91
2022/06/04 06:09:26;;;;;;;14.10;7.28;;;34.90;99.90;;;;;;4938817;29;20031;-91
2022/06/04 06:11:55;;;;;;;10.35;8.13;;;34.40;99.90;;;;;;4926712;29;20208;-91
2022/06/04 06:14:23;;;;;;;15.13;8.45;;;34.80;99.90;;;;;;4920015;29;20027;-93
2022/06/04 06:16:51;;;;;;;15.27;8.10;;;34.60;99.90;;;;;;4931591;29;20110;-92
2022/06/04 06:19:23;;;;;;;11.23;8.15;;;35.10;99.90;;;;;;4915179;29;20362;-92
2022/06/04 06:21:50;;;;;;;10.75;8.27;;;35.40;99.90;;;;;;4916444;29;20075;-92
2022/06/04 06:24:17;;;;;;;14.98;8.35;;;35.90;99.90;;;;;;4914225;29;20106;-93
2022/06/04 06:26:48;;;;;;;13.18;9.07;;;35.90;99.90;;;;;;4910299;29;20032;-91
2022/06/04 06:29:17;;;;;;;11.10;8.75;;;35.80;99.90;;;;;;4915139;29;20118;-93
2022/06/04 06:31:46;;;;;;;13.85;8.10;;;35.90;99.90;;;;;;4912307;29;20470;-91
2022/06/04 06:34:13;;;;;;;9.80;8.80;;;36.00;99.90;;;;;;4915304;29;20031;-91
2022/06/04 06:36:40;;;;;;;10.23;9.20;;;36.10;99.90;;;;;;4913891;29;20020;-91
2022/06/04 06:39:07;;;;;;;12.90;8.90;;;36.10;99.90;;;;;;4899223;29;20074;-91
2022/06/04 06:41:35;;;;;;;9.65;8.55;;;36.50;99.90;;;;;;4893956;29;20421;-92
2022/06/04 06:44:01;;;;;;;17.92;8.15;;;36.60;99.90;;;;;;4892517;29;20478;-91
2022/06/04 06:46:41;;;;;;;17.25;8.82;;;36.50;99.90;;;;;;4878432;29;20053;-92
2022/06/04 06:49:17;;;;;;;10.20;8.43;;;36.50;99.90;;;;;;4878619;29;20024;-90
2022/06/04 06:51:53;;;;;;;10.10;7.65;;;36.40;99.90;;;;;;4898579;29;20036;-91
2022/06/04 06:54:28;;;;;;;11.52;7.88;;;35.80;99.90;;;;;;4886274;29;20039;-93
2022/06/04 06:56:56;;;;;;;13.75;7.88;;;35.50;99.90;;;;;;4905781;29;20039;-91
2022/06/04 06:59:25;;;;;;;12.13;8.57;;;35.70;99.90;;;;;;4888560;29;20032;-93
2022/06/04 07:01:53;;;;;;;12.35;8.38;;;36.00;99.90;;;;;;4903659;29;20028;-93
2022/06/04 07:04:51;;;;;;;13.50;9.23;;;36.10;99.90;;;;;;4890779;29;20119;-92
2022/06/04 07:07:18;;;;;;;13.40;7.90;;;35.90;99.90;;;;;;4882222;29;20128;-89
2022/06/04 07:09:44;;;;;;;13.10;8.75;;;35.70;99.90;;;;;;4881387;29;20033;-91
2022/06/04 07:12:15;;;;;;;12.77;8.90;;;35.50;99.90;;;;;;4869748;29;20068;-90
2022/06/04 07:14:44;;;;;;;11.77;9.00;;;35.90;99.90;;;;;;4877288;29;20037;-89
2022/06/04 07:17:11;;;;;;;23.60;9.48;;;36.20;99.90;;;;;;4895608;29;20113;-90
2022/06/04 07:19:38;;;;;;;12.27;8.63;;;35.60;99.90;;;;;;4890219;29;20048;-91
2022/06/04 07:22:05;;;;;;;9.32;8.48;;;35.60;99.90;;;;;;4872722;29;20142;-89
2022/06/04 07:24:32;;;;;;;10.35;8.65;;;36.10;99.90;;;;;;4885892;29;20063;-88
2022/06/04 07:27:00;;;;;;;9.75;8.70;;;36.00;99.90;;;;;;4884956;29;20029;-90
2022/06/04 07:29:28;;;;;;;9.93;8.07;;;36.10;99.90;;;;;;4887262;29;20025;-89
2022/06/04 07:31:58;;;;;;;10.75;8.70;;;36.20;99.90;;;;;;4885260;29;20045;-90
2022/06/04 07:34:24;;;;;;;9.43;8.52;;;36.50;99.90;;;;;;4870811;29;20101;-91
2022/06/04 07:36:51;;;;;;;10.73;7.90;;;36.20;99.90;;;;;;4886430;29;20025;-89
2022/06/04 07:39:19;;;;;;;13.25;8.70;;;35.90;99.90;;;;;;4901730;29;20081;-90
2022/06/04 07:41:53;;;;;;;10.27;8.90;;;35.60;99.90;;;;;;4875683;29;20040;-88
2022/06/04 07:44:22;;;;;;;11.15;8.35;;;35.50;99.90;;;;;;4882032;29;20040;-90
2022/06/04 07:46:55;;;;;;;10.95;9.00;;;35.30;99.90;;;;;;4891230;29;20123;-89
2022/06/04 07:49:23;;;;;;;10.10;8.98;;;35.60;99.90;;;;;;4894281;29;20040;-90
2022/06/04 07:51:51;;;;;;;12.43;8.23;;;35.70;99.90;;;;;;4893550;29;20024;-90
2022/06/04 07:54:19;;;;;;;13.30;8.80;;;35.80;99.90;;;;;;4890211;29;20070;-90
2022/06/04 07:56:45;;;;;;;11.30;8.70;;;35.80;99.90;;;;;;4892614;29;20446;-89
2022/06/04 07:59:16;;;;;;;17.15;8.90;;;35.80;99.90;;;;;;4892699;29;20048;-90
2022/06/04 08:01:44;;;;;;;12.00;7.85;;;35.90;99.90;;;;;;4891920;29;20103;-90
2022/06/04 08:04:11;;;;;;;10.32;9.25;;;36.10;99.90;;;;;;4893920;29;20035;-91
2022/06/04 08:06:38;;;;;;;11.55;8.77;;;36.40;99.90;;;;;;4892824;29;20028;-88
2022/06/04 08:09:05;;;;;;;8.90;8.18;;;36.40;99.90;;;;;;4893510;29;20036;-92
2022/06/04 08:11:32;;;;;;;10.05;9.00;;;36.90;99.90;;;;;;4893303;29;20040;-92
2022/06/04 08:14:13;;;;;;;10.68;9.77;;;37.60;99.90;;;;;;4893280;29;20031;-90
2022/06/04 08:16:43;;;;;;;21.25;10.13;;;38.00;99.90;;;;;;4893243;29;20471;-92
2022/06/04 08:19:11;;;;;;;11.77;9.63;;;37.30;99.90;;;;;;4892824;29;20520;-93
2022/06/04 08:21:39;;;;;;;10.65;9.57;;;36.90;99.90;;;;;;4892837;29;20067;-91
2022/06/04 08:24:06;;;;;;;10.75;9.65;;;37.10;99.90;;;;;;4893679;29;20032;-92
2022/06/04 08:26:33;;;;;;;12.77;10.35;;;36.70;99.90;;;;;;4893070;29;20033;-90
2022/06/04 08:29:00;;;;;;;12.60;10.20;;;37.10;99.90;;;;;;4893004;29;20043;-90
2022/06/04 08:31:26;;;;;;;11.32;10.23;;;36.80;99.90;;;;;;4892972;29;20024;-91
2022/06/04 08:33:53;;;;;;;11.65;10.50;;;37.00;99.90;;;;;;4908981;29;20461;-91
2022/06/04 08:36:21;;;;;;;11.80;10.70;;;36.80;99.90;;;;;;4892763;29;20028;-92
2022/06/04 08:38:48;;;;;;;12.73;11.43;;;36.50;99.90;;;;;;4909027;29;20087;-92
2022/06/04 08:41:41;;;;;;;12.10;10.77;;;37.30;99.90;;;;;;4892840;29;20031;-91
2022/06/04 08:44:16;;;;;;;12.77;11.07;;;37.40;99.90;;;;;;4892922;29;20036;-91
2022/06/04 08:46:52;;;;;;;13.30;10.98;;;37.40;99.90;;;;;;4908344;29;20043;-91
2022/06/04 08:49:29;;;;;;;12.02;10.80;;;37.40;99.90;;;;;;4892497;29;20493;-91
2022/06/04 08:52:00;;;;;;;13.00;11.23;;;37.90;99.90;;;;;;4893287;29;20032;-91
2022/06/04 08:57:35;;;;;;;12.23;10.65;;;37.40;99.90;;;;;;4907902;29;20048;-92
2022/06/04 09:00:13;;;;;;;17.73;11.25;;;37.50;99.90;;;;;;4892286;29;20494;-91
2022/06/04 09:03:06;;;;;;;12.02;10.95;;;37.00;99.90;;;;;;4893525;29;20048;-92
2022/06/04 09:06:08;;;;;;;12.57;11.13;;;36.60;99.90;;;;;;4892647;29;20036;-92
2022/06/04 09:08:45;;;;;;;11.85;10.70;;;36.40;99.90;;;;;;4892059;29;20039;-91
2022/06/04 09:11:52;;;;;;;15.88;11.98;;;36.10;99.90;;;;;;4892354;29;20039;-90
2022/06/04 09:14:50;;;;;;;11.30;10.30;;;36.40;99.90;;;;;;4873605;29;20160;-90
2022/06/04 09:17:38;;;;;;;12.75;11.57;;;36.40;99.90;;;;;;4907550;29;20494;-91
2022/06/04 09:20:34;;;;;;;12.10;11.00;;;36.70;99.90;;;;;;4907492;29;20067;-93
2022/06/04 09:23:35;;;;;;;13.75;10.82;;;36.80;99.90;;;;;;4907741;29;20036;-90
2022/06/04 09:26:08;;;;;;;13.10;10.85;;;36.60;99.90;;;;;;4891376;29;20032;-90
2022/06/04 09:29:02;;;;;;;11.10;10.05;;;36.30;99.90;;;;;;4907617;29;20038;-92
2022/06/04 09:31:54;;;;;;;13.35;10.55;;;36.20;99.90;;;;;;4892949;29;20043;-91
2022/06/04 09:34:37;;;;;;;11.73;10.65;;;36.50;99.90;;;;;;4892329;29;20071;-91
2022/06/04 09:37:10;;;;;;;12.48;10.57;;;36.40;99.90;;;;;;4893007;29;20039;-90
2022/06/04 09:40:00;;;;;;;11.10;10.18;;;35.50;99.90;;;;;;4938336;29;20047;-90
2022/06/04 09:42:30;;;;;;;12.10;10.65;;;35.80;99.90;;;;;;4929230;29;20032;-90
2022/06/04 09:45:04;;;;;;;18.23;10.93;;;36.00;99.90;;;;;;4930314;29;20074;-90
2022/06/04 09:47:47;;;;;;;12.70;11.40;;;36.70;99.90;;;;;;4929910;29;20075;-90
2022/06/04 09:50:20;;;;;;;11.38;10.27;;;36.80;99.90;;;;;;4929809;29;20039;-91
2022/06/04 09:53:14;;;;;;;11.13;10.13;;;36.00;99.90;;;;;;4929268;29;20144;-90
2022/06/04 09:56:08;;;;;;;11.45;10.25;;;35.60;99.90;;;;;;4929143;29;20058;-88
2022/06/04 09:58:42;;;;;;;13.60;10.43;;;35.90;99.90;;;;;;4929051;29;20027;-91
2022/06/04 10:01:23;;;;;;;10.93;10.07;;;36.00;99.90;;;;;;4929217;29;20039;-91
2022/06/04 10:04:14;;;;;;;12.65;11.13;;;36.10;99.90;;;;;;4929174;29;20049;-90
2022/06/04 10:06:42;;;;;;;11.45;10.63;;;35.70;99.90;;;;;;4929149;29;20407;-91
2022/06/04 10:15:30;;;;;;;13.10;11.90;;;35.30;99.90;;;;;;4944726;29;20058;-91
2022/06/04 10:18:06;;;;;;;13.25;11.43;;;35.80;99.90;;;;;;4929711;29;20079;-93
2022/06/04 10:20:34;;;;;;;12.45;11.10;;;36.00;99.90;;;;;;4936215;29;20082;-90
2022/06/04 10:23:00;;;;;;;12.68;11.50;;;36.00;99.90;;;;;;4935455;29;20023;-92
2022/06/04 10:26:13;;;;;;;11.93;10.82;;;36.20;99.90;;;;;;4928535;29;20031;-89
2022/06/04 10:29:05;;;;;;;13.30;11.77;;;36.30;99.90;;;;;;4891680;29;20441;-89
2022/06/04 10:31:41;;;;;;;12.32;11.27;;;35.80;99.90;;;;;;4942841;29;20042;-88
2022/06/04 10:34:29;;;;;;;12.38;11.32;;;35.80;99.90;;;;;;4927666;29;20082;-88
2022/06/04 10:37:11;;;;;;;12.20;11.20;;;36.00;99.90;;;;;;4914313;29;20111;-88
2022/06/04 10:39:55;;;;;;;12.95;11.85;;;35.70;99.90;;;;;;4894950;29;20136;-88
2022/06/04 10:42:51;;;;;;;12.35;11.35;;;35.90;99.90;;;;;;4894057;29;20510;-88
2022/06/04 10:45:52;;;;;;;14.18;12.20;;;36.10;99.90;;;;;;4793799;29;20042;-89
2022/06/04 10:48:48;;;;;;;11.80;10.88;;;36.70;99.90;;;;;;4783440;29;20045;-90
2022/06/04 10:51:28;;;;;;;12.05;11.05;;;37.20;99.90;;;;;;4790833;29;20200;-88
2022/06/04 10:54:14;;;;;;;12.60;11.52;;;37.20;99.90;;;;;;4800608;29;20042;-87
2022/06/04 10:57:09;;;;;;;12.07;11.15;;;36.60;99.90;;;;;;4805022;29;20462;-89
2022/06/04 11:00:01;;;;;;;12.25;11.15;;;37.00;99.90;;;;;;4795757;29;20082;-89
2022/06/04 11:02:57;;;;;;;12.10;11.10;;;36.80;99.90;;;;;;4817314;29;20530;-89
2022/06/04 11:05:32;;;;;;;12.00;11.10;;;36.80;99.90;;;;;;4802935;29;20583;-90
